createdAt,value
2023-04-03T00:01:23.392Z,98831.63
2023-04-03T00:03:52.903Z,98828.06
2023-04-03T00:06:21.433Z,98830.34
2023-04-03T00:08:51.827Z,98827.16
2023-04-03T00:11:21.592Z,98824.00
2023-04-03T00:13:50.503Z,98828.59
2023-04-03T00:16:19.559Z,98825.47
2023-04-03T00:18:48.146Z,98822.34
2023-04-03T00:21:16.670Z,98819.94
2023-04-03T00:23:44.914Z,98822.63
2023-04-03T00:26:14.677Z,98827.22
2023-04-03T00:28:42.966Z,98822.16
2023-04-03T00:31:12.309Z,98825.16
2023-04-03T00:33:40.515Z,98826.66
2023-04-03T00:36:10.477Z,98826.19
2023-04-03T00:38:38.924Z,98821.53
2023-04-03T00:41:07.872Z,98821.09
2023-04-03T00:43:37.516Z,98823.44
2023-04-03T00:46:06.915Z,98828.09
2023-04-03T00:48:38.486Z,98827.38
2023-04-03T00:51:09.752Z,98820.41
2023-04-03T00:53:42.283Z,98829.59
2023-04-03T00:56:14.996Z,98829.13
2023-04-03T00:58:49.141Z,98825.19
2023-04-03T01:01:22.990Z,98827.81
2023-04-03T01:03:51.389Z,98829.31
2023-04-03T01:06:22.668Z,98825.50
2023-04-03T01:08:52.242Z,98824.66
2023-04-03T01:11:21.805Z,98831.22
2023-04-03T01:13:51.500Z,98824.25
2023-04-03T01:16:20.694Z,98819.91
2023-04-03T01:18:50.317Z,98818.28
2023-04-03T01:22:04.565Z,98819.00
2023-04-03T01:24:40.541Z,98815.88
2023-04-03T01:27:11.908Z,98819.41
2023-04-03T01:29:44.602Z,98819.41
2023-04-03T01:32:14.426Z,98824.00
2023-04-03T01:34:42.599Z,98820.22
2023-04-03T01:37:10.691Z,98810.94
2023-04-03T01:39:38.817Z,98808.31
2023-04-03T01:42:07.652Z,98809.03
2023-04-03T01:44:35.846Z,98812.03
2023-04-03T01:47:04.091Z,98817.78
2023-04-03T01:49:33.660Z,98821.19
2023-04-03T01:52:01.928Z,98827.34
2023-04-03T01:54:30.039Z,98834.59
2023-04-03T01:56:58.442Z,98836.53
2023-04-03T01:59:26.952Z,98838.81
2023-04-03T02:01:55.191Z,98837.63
2023-04-03T02:04:23.514Z,98827.94
2023-04-03T02:06:53.187Z,98838.00
2023-04-03T02:09:21.662Z,98833.78
2023-04-03T02:11:50.379Z,98835.50
2023-04-03T02:14:20.697Z,98827.34
2023-04-03T02:16:49.074Z,98830.78
2023-04-03T02:19:17.422Z,98828.75
2023-04-03T02:21:46.596Z,98838.22
2023-04-03T02:24:16.180Z,98833.72
2023-04-03T02:26:44.373Z,98835.25
2023-04-03T02:29:12.617Z,98835.94
2023-04-03T02:31:40.842Z,98839.00
2023-04-03T02:34:09.047Z,98828.13
2023-04-03T02:36:37.316Z,98833.53
2023-04-03T02:39:06.407Z,98839.97
2023-04-03T02:41:36.089Z,98836.34
2023-04-03T02:44:04.940Z,98833.56
2023-04-03T02:46:33.393Z,98828.78
2023-04-03T02:49:01.626Z,98826.78
2023-04-03T02:51:29.918Z,98827.53
2023-04-03T02:53:58.066Z,98835.59
2023-04-03T02:56:27.958Z,98825.81
2023-04-03T02:58:57.546Z,98830.31
2023-04-03T03:01:25.822Z,98832.19
2023-04-03T03:03:53.855Z,98824.72
2023-04-03T03:06:22.075Z,98825.00
2023-04-03T03:08:50.214Z,98815.72
2023-04-03T03:11:18.858Z,98811.38
2023-04-03T03:13:47.077Z,98809.72
2023-04-03T03:16:16.854Z,98799.56
2023-04-03T03:18:45.014Z,98806.41
2023-04-03T03:21:13.691Z,98810.88
2023-04-03T03:23:42.037Z,98808.03
2023-04-03T03:26:12.000Z,98799.78
2023-04-03T03:28:41.419Z,98796.22
2023-04-03T03:31:11.269Z,98792.69
2023-04-03T03:33:41.030Z,98790.31
2023-04-03T03:36:09.628Z,98798.75
2023-04-03T03:38:37.858Z,98794.84
2023-04-03T03:41:05.988Z,98792.94
2023-04-03T03:43:34.192Z,98795.19
2023-04-03T03:46:02.339Z,98800.16
2023-04-03T03:48:30.638Z,98808.56
2023-04-03T03:51:00.242Z,98811.16
2023-04-03T03:53:28.345Z,98811.88
2023-04-03T03:55:56.702Z,98811.81
2023-04-03T03:58:24.906Z,98812.59
2023-04-03T04:00:53.160Z,98814.84
2023-04-03T04:03:22.220Z,98817.47
2023-04-03T04:05:50.481Z,98823.59
2023-04-03T04:08:20.067Z,98830.47
2023-04-03T04:10:48.580Z,98828.13
2023-04-03T04:13:17.478Z,98837.34
2023-04-03T04:15:46.812Z,98828.13
2023-04-03T04:18:15.107Z,98823.66
2023-04-03T04:20:43.339Z,98832.88
2023-04-03T04:23:11.930Z,98842.53
2023-04-03T04:25:41.539Z,98856.47
2023-04-03T04:28:11.167Z,98856.47
2023-04-03T04:30:39.741Z,98853.50
2023-04-03T04:33:08.129Z,98851.91
2023-04-03T04:35:38.725Z,98851.34
2023-04-03T04:38:07.820Z,98858.81
2023-04-03T04:40:36.606Z,98863.34
2023-04-03T04:43:06.630Z,98853.84
2023-04-03T04:45:35.260Z,98852.56
2023-04-03T04:48:03.912Z,98847.44
2023-04-03T04:50:36.008Z,98851.25
2023-04-03T04:53:06.293Z,98861.09
2023-04-03T04:55:37.219Z,98865.16
2023-04-03T04:58:07.158Z,98875.88
2023-04-03T05:00:35.839Z,98873.16
2023-04-03T05:03:04.067Z,98874.22
2023-04-03T05:05:32.629Z,98874.34
2023-04-03T05:08:01.114Z,98869.66
2023-04-03T05:10:29.755Z,98878.69
2023-04-03T05:12:58.261Z,98876.47
2023-04-03T05:15:28.266Z,98870.41
2023-04-03T05:17:56.531Z,98880.88
2023-04-03T05:20:25.572Z,98882.50
2023-04-03T05:22:53.881Z,98886.75
2023-04-03T05:25:21.960Z,98889.91
2023-04-03T05:27:50.453Z,98902.28
2023-04-03T05:30:19.492Z,98889.00
2023-04-03T05:32:49.393Z,98900.19
2023-04-03T05:35:18.315Z,98905.03
2023-04-03T05:37:46.657Z,98907.09
2023-04-03T05:40:16.321Z,98894.53
2023-04-03T05:42:46.299Z,98893.50
2023-04-03T05:45:14.531Z,98904.81
2023-04-03T05:47:43.606Z,98904.94
2023-04-03T05:50:13.630Z,98907.34
2023-04-03T05:52:46.490Z,98904.44
2023-04-03T05:55:14.941Z,98913.38
2023-04-03T05:57:43.142Z,98912.50
2023-04-03T06:00:16.602Z,98906.59
2023-04-03T06:02:45.303Z,98912.41
2023-04-03T06:05:16.169Z,98908.22
2023-04-03T06:07:45.648Z,98904.13
2023-04-03T06:10:15.396Z,98912.44
2023-04-03T06:12:44.182Z,98911.81
2023-04-03T06:15:12.905Z,98920.94
2023-04-03T06:17:41.226Z,98919.94
2023-04-03T06:20:10.571Z,98923.09
2023-04-03T06:22:42.977Z,98915.03
2023-04-03T06:25:12.000Z,98917.97
2023-04-03T06:27:40.706Z,98914.81
2023-04-03T06:30:10.208Z,98909.72
2023-04-03T06:32:40.802Z,98909.72
2023-04-03T06:35:10.190Z,98905.09
2023-04-03T06:37:40.117Z,98910.16
2023-04-03T06:40:13.727Z,98908.38
2023-04-03T06:42:42.063Z,98922.50
2023-04-03T06:45:13.132Z,98926.81
2023-04-03T06:47:41.516Z,98939.00
2023-04-03T06:50:12.874Z,98942.72
2023-04-03T06:52:42.799Z,98931.47
2023-04-03T06:55:11.756Z,98930.41
2023-04-03T06:57:40.382Z,98935.50
2023-04-03T07:00:10.343Z,98938.56
2023-04-03T07:02:38.871Z,98934.66
2023-04-03T07:05:08.335Z,98931.97
2023-04-03T07:07:36.944Z,98939.41
2023-04-03T07:10:08.547Z,98940.59
2023-04-03T07:12:37.008Z,98939.41
2023-04-03T07:15:06.084Z,98939.50
2023-04-03T07:17:34.524Z,98939.09
2023-04-03T07:20:02.863Z,98948.03
2023-04-03T07:22:31.285Z,98931.03
2023-04-03T07:25:00.274Z,98929.91
2023-04-03T07:27:30.568Z,98924.09
2023-04-03T07:30:00.074Z,98917.84
2023-04-03T07:32:28.446Z,98922.94
2023-04-03T07:34:56.733Z,98918.66
2023-04-03T07:37:24.946Z,98918.19
2023-04-03T07:39:53.375Z,98913.94
2023-04-03T07:42:21.613Z,98915.09
2023-04-03T07:44:51.131Z,98920.94
2023-04-03T07:47:19.497Z,98918.25
2023-04-03T07:49:48.192Z,98912.03
2023-04-03T07:52:18.682Z,98915.53
2023-04-03T07:54:47.101Z,98904.63
2023-04-03T07:57:15.585Z,98914.75
2023-04-03T07:59:44.303Z,98910.03
2023-04-03T08:02:14.875Z,98902.25
2023-04-03T08:04:43.986Z,98908.09
2023-04-03T08:07:12.399Z,98903.81
2023-04-03T08:09:41.559Z,98892.91
2023-04-03T08:12:12.348Z,98899.53
2023-04-03T08:14:41.328Z,98896.03
2023-04-03T08:17:12.678Z,98901.09
2023-04-03T08:19:43.024Z,98892.91
2023-04-03T08:22:11.897Z,98889.28
2023-04-03T08:24:45.725Z,98894.72
2023-04-03T08:27:20.898Z,98892.66
2023-04-03T08:29:49.372Z,98885.75
2023-04-03T08:32:17.850Z,98878.84
2023-04-03T08:34:47.751Z,98881.19
2023-04-03T08:37:17.934Z,98878.09
2023-04-03T08:39:46.452Z,98875.78
2023-04-03T08:42:21.747Z,98863.31
2023-04-03T08:44:58.383Z,98862.16
2023-04-03T08:47:32.545Z,98859.44
2023-04-03T08:50:05.130Z,98848.88
2023-04-03T08:52:39.282Z,98850.41
2023-04-03T08:55:15.957Z,98851.94
2023-04-03T08:57:47.820Z,98840.69
2023-04-03T09:00:21.591Z,98841.91
2023-04-03T09:02:51.714Z,98853.47
2023-04-03T09:05:31.471Z,98843.41
2023-04-03T09:08:07.256Z,98843.66
2023-04-03T09:10:39.998Z,98846.72
2023-04-03T09:13:13.778Z,98852.19
2023-04-03T09:15:43.236Z,98845.22
2023-04-03T09:18:17.878Z,98846.09
2023-04-03T09:20:56.234Z,98842.16
2023-04-03T09:23:30.921Z,98842.84
2023-04-03T09:26:06.157Z,98835.78
2023-04-03T09:28:49.259Z,98839.72
2023-04-03T09:31:24.991Z,98836.03
2023-04-03T09:33:57.953Z,98836.72
2023-04-03T09:36:46.005Z,98833.56
2023-04-03T09:39:17.587Z,98826.09
2023-04-03T09:41:59.551Z,98829.66
2023-04-03T09:44:31.010Z,98828.47
2023-04-03T09:46:59.794Z,98832.72
2023-04-03T09:49:28.025Z,98824.72
2023-04-03T09:51:57.671Z,98813.06
2023-04-03T09:54:42.216Z,98808.47
2023-04-03T09:57:15.581Z,98802.25
2023-04-03T09:59:48.619Z,98809.69
2023-04-03T10:02:37.110Z,98815.50
2023-04-03T10:05:09.851Z,98820.56
2023-04-03T10:07:44.444Z,98819.00
2023-04-03T10:10:25.024Z,98822.50
2023-04-03T10:13:06.899Z,98819.75
2023-04-03T10:15:42.926Z,98814.31
2023-04-03T10:18:29.738Z,98805.72
2023-04-03T10:21:06.146Z,98810.75
2023-04-03T10:23:44.916Z,98809.66
2023-04-03T10:26:27.315Z,98811.22
2023-04-03T10:29:05.735Z,98813.16
2023-04-03T10:31:39.691Z,98808.88
2023-04-03T10:34:17.989Z,98804.16
2023-04-03T10:36:54.036Z,98807.66
2023-04-03T10:39:31.999Z,98817.44
2023-04-03T10:42:16.511Z,98810.03
2023-04-03T10:45:03.556Z,98814.69
2023-04-03T10:47:39.680Z,98821.34
2023-04-03T10:50:27.708Z,98823.28
2023-04-03T10:53:03.695Z,98828.31
2023-04-03T10:55:40.405Z,98825.97
2023-04-03T10:58:17.225Z,98828.72
2023-04-03T11:00:49.809Z,98828.31
2023-04-03T11:03:27.594Z,98828.28
2023-04-03T11:05:58.429Z,98828.72
2023-04-03T11:08:31.550Z,98841.94
2023-04-03T11:11:05.501Z,98833.41
2023-04-03T11:13:38.585Z,98825.22
2023-04-03T11:16:07.650Z,98824.06
2023-04-03T11:18:43.539Z,98830.28
2023-04-03T11:21:17.980Z,98820.94
2023-04-03T11:23:50.109Z,98808.44
2023-04-03T11:26:22.879Z,98804.91
2023-04-03T11:28:57.506Z,98803.72
2023-04-03T11:31:40.568Z,98801.75
2023-04-03T11:34:23.281Z,98808.72
2023-04-03T11:36:56.362Z,98803.72
2023-04-03T11:39:28.479Z,98800.28
2023-04-03T11:42:15.680Z,98801.84
2023-04-03T11:44:45.729Z,98794.50
2023-04-03T11:47:34.953Z,98794.44
2023-04-03T11:50:06.350Z,98800.28
2023-04-03T11:52:59.402Z,98785.88
2023-04-03T11:55:48.079Z,98789.28
2023-04-03T11:58:19.854Z,98791.16
2023-04-03T12:01:07.300Z,98782.53
2023-04-03T12:03:55.417Z,98789.47
2023-04-03T12:07:02.213Z,98775.44
2023-04-03T12:09:36.001Z,98771.56
2023-04-03T12:12:29.255Z,98771.50
2023-04-03T12:15:15.046Z,98771.91
2023-04-03T12:17:43.604Z,98770.66
2023-04-03T12:20:44.785Z,98771.00
2023-04-03T12:23:27.789Z,98777.81
2023-04-03T12:26:04.728Z,98773.50
2023-04-03T12:28:40.885Z,98765.31
2023-04-03T12:31:12.298Z,98766.84
2023-04-03T12:34:00.878Z,98759.16
2023-04-03T12:36:40.625Z,98752.16
2023-04-03T12:39:36.176Z,98752.47
2023-04-03T12:42:20.770Z,98747.38
2023-04-03T12:44:57.934Z,98753.13
2023-04-03T12:47:34.090Z,98749.59
2023-04-03T12:50:05.212Z,98753.53
2023-04-03T12:52:39.321Z,98751.88
2023-04-03T12:55:18.459Z,98747.53
2023-04-03T12:57:47.309Z,98744.00
2023-04-03T13:00:31.765Z,98741.97
2023-04-03T13:03:02.727Z,98735.38
2023-04-03T13:05:33.022Z,98734.19
2023-04-03T13:08:06.204Z,98733.47
2023-04-03T13:10:47.504Z,98739.97
2023-04-03T13:13:19.315Z,98726.44
2023-04-03T13:15:51.527Z,98726.91
2023-04-03T13:18:31.016Z,98721.53
2023-04-03T13:21:04.217Z,98719.09
2023-04-03T13:23:33.590Z,98716.47
2023-04-03T13:26:04.637Z,98716.38
2023-04-03T13:28:35.452Z,98713.53
2023-04-03T13:31:11.882Z,98719.06
2023-04-03T13:33:46.734Z,98716.69
2023-04-03T13:36:20.750Z,98710.50
2023-04-03T13:38:59.743Z,98708.56
2023-04-03T13:41:32.535Z,98704.13
2023-04-03T13:44:28.994Z,98697.06
2023-04-03T13:46:58.949Z,98682.72
2023-04-03T13:49:35.220Z,98670.34
2023-04-03T13:52:08.035Z,98669.91
2023-04-03T13:54:39.434Z,98659.84
2023-04-03T13:57:17.747Z,98656.88
2023-04-03T13:59:46.711Z,98662.19
2023-04-03T14:02:21.830Z,98661.47
2023-04-03T14:04:58.215Z,98639.19
2023-04-03T14:07:28.140Z,98642.78
2023-04-03T14:09:57.619Z,98635.75
2023-04-03T14:12:32.748Z,98634.47
2023-04-03T14:15:02.908Z,98632.16
2023-04-03T14:17:31.344Z,98637.28
2023-04-03T14:20:02.842Z,98639.00
2023-04-03T14:22:38.475Z,98636.31
2023-04-03T14:25:07.462Z,98647.88
2023-04-03T14:27:40.732Z,98639.75
2023-04-03T14:30:15.056Z,98631.19
2023-04-03T14:32:43.570Z,98643.53
2023-04-03T14:35:13.363Z,98641.16
2023-04-03T14:37:43.846Z,98647.38
2023-04-03T14:40:17.376Z,98638.88
2023-04-03T14:42:45.976Z,98629.97
2023-04-03T14:45:15.175Z,98634.84
2023-04-03T14:47:50.441Z,98628.41
2023-04-03T14:50:22.861Z,98617.81
2023-04-03T14:52:55.964Z,98616.78
2023-04-03T14:55:28.070Z,98614.03
2023-04-03T14:57:57.774Z,98614.38
2023-04-03T15:00:26.929Z,98611.34
2023-04-03T15:02:58.362Z,98617.56
2023-04-03T15:05:28.335Z,98611.31
2023-04-03T15:07:58.495Z,98612.44
2023-04-03T15:10:29.005Z,98606.22
2023-04-03T15:12:58.674Z,98596.16
2023-04-03T15:15:30.593Z,98601.22
2023-04-03T15:17:59.964Z,98591.91
2023-04-03T15:20:31.799Z,98579.13
2023-04-03T15:23:01.920Z,98590.03
2023-04-03T15:25:31.273Z,98588.84
2023-04-03T15:28:00.872Z,98580.25
2023-04-03T15:30:29.232Z,98571.31
2023-04-03T15:32:58.090Z,98570.97
2023-04-03T15:35:26.746Z,98565.03
2023-04-03T15:37:56.463Z,98558.13
2023-04-03T15:40:24.822Z,98552.66
2023-04-03T15:42:54.478Z,98552.72
2023-04-03T15:45:23.446Z,98549.63
2023-04-03T15:47:53.028Z,98545.59
2023-04-03T15:50:23.399Z,98547.03
2023-04-03T15:52:55.340Z,98542.44
2023-04-03T15:55:25.950Z,98538.88
2023-04-03T15:57:54.556Z,98537.97
2023-04-03T16:00:23.620Z,98527.06
2023-04-03T16:02:55.209Z,98522.72
2023-04-03T16:05:24.652Z,98521.53
2023-04-03T16:07:54.893Z,98515.00
2023-04-03T16:10:24.998Z,98509.19
2023-04-03T16:12:53.357Z,98510.47
2023-04-03T16:15:21.940Z,98512.31
2023-04-03T16:17:52.266Z,98512.66
2023-04-03T16:20:22.908Z,98493.25
2023-04-03T16:22:51.621Z,98489.72
2023-04-03T16:25:20.420Z,98476.91
2023-04-03T16:27:50.131Z,98466.16
2023-04-03T16:30:18.868Z,98465.38
2023-04-03T16:32:48.133Z,98461.50
2023-04-03T16:35:18.233Z,98456.63
2023-04-03T16:37:46.612Z,98450.03
2023-04-03T16:40:15.137Z,98440.72
2023-04-03T16:42:45.232Z,98444.16
2023-04-03T16:45:15.108Z,98434.44
2023-04-03T16:47:43.939Z,98429.91
2023-04-03T16:50:14.769Z,98412.94
2023-04-03T16:52:43.170Z,98411.38
2023-04-03T16:55:11.738Z,98419.19
2023-04-03T16:57:40.132Z,98409.41
2023-04-03T17:00:12.607Z,98411.38
2023-04-03T17:02:42.949Z,98409.03
2023-04-03T17:05:12.130Z,98397.50
2023-04-03T17:07:40.516Z,98391.00
2023-04-03T17:10:10.880Z,98383.66
2023-04-03T17:12:39.533Z,98373.56
2023-04-03T17:15:09.204Z,98373.19
2023-04-03T17:17:38.058Z,98358.09
2023-04-03T17:20:09.886Z,98345.31
2023-04-03T17:22:39.424Z,98356.94
2023-04-03T17:25:08.464Z,98352.72
2023-04-03T17:27:42.617Z,98349.97
2023-04-03T17:30:11.691Z,98351.91
2023-04-03T17:32:40.016Z,98356.47
2023-04-03T17:35:11.707Z,98346.81
2023-04-03T17:37:40.698Z,98359.16
2023-04-03T17:40:14.523Z,98366.44
2023-04-03T17:42:42.868Z,98367.19
2023-04-03T17:45:14.046Z,98350.88
2023-04-03T17:47:43.572Z,98345.47
2023-04-03T17:50:16.259Z,98346.22
2023-04-03T17:52:44.725Z,98348.19
2023-04-03T17:55:17.820Z,98341.53
2023-04-03T17:57:49.025Z,98344.31
2023-04-03T18:00:18.899Z,98347.31
2023-04-03T18:02:49.747Z,98350.78
2023-04-03T18:05:23.386Z,98358.03
2023-04-03T18:07:54.828Z,98350.38
2023-04-03T18:10:23.474Z,98352.25
2023-04-03T18:12:55.045Z,98342.94
2023-04-03T18:15:23.586Z,98349.88
2023-04-03T18:17:56.852Z,98364.47
2023-04-03T18:20:26.811Z,98359.41
2023-04-03T18:22:55.628Z,98367.53
2023-04-03T18:25:23.998Z,98377.88
2023-04-03T18:27:53.375Z,98384.06
2023-04-03T18:30:22.706Z,98392.25
2023-04-03T18:32:51.236Z,98389.16
2023-04-03T18:35:19.834Z,98393.03
2023-04-03T18:37:49.536Z,98385.38
2023-04-03T18:40:18.062Z,98374.09
2023-04-03T18:42:46.713Z,98380.94
2023-04-03T18:45:22.969Z,98379.38
2023-04-03T18:47:51.492Z,98382.50
2023-04-03T18:50:20.562Z,98376.63
2023-04-03T18:52:50.882Z,98387.84
2023-04-03T18:55:20.506Z,98383.91
2023-04-03T18:57:49.702Z,98392.38
2023-04-03T19:00:19.968Z,98390.91
2023-04-03T19:02:48.601Z,98383.59
2023-04-03T19:05:19.930Z,98365.06
2023-04-03T19:07:51.976Z,98369.22
2023-04-03T19:10:20.357Z,98360.28
2023-04-03T19:12:50.430Z,98364.81
2023-04-03T19:15:21.323Z,98365.59
2023-04-03T19:17:50.203Z,98365.63
2023-04-03T19:20:18.635Z,98377.16
2023-04-03T19:22:47.426Z,98369.97
2023-04-03T19:25:17.900Z,98369.66
2023-04-03T19:27:46.009Z,98370.28
2023-04-03T19:30:15.576Z,98369.06
2023-04-03T19:32:45.274Z,98372.06
2023-04-03T19:35:13.909Z,98360.78
2023-04-03T19:37:42.762Z,98363.53
2023-04-03T19:40:12.098Z,98358.38
2023-04-03T19:42:43.091Z,98363.22
2023-04-03T19:45:15.005Z,98361.66
2023-04-03T19:47:43.632Z,98360.63
2023-04-03T19:50:12.868Z,98354.78
2023-04-03T19:52:41.233Z,98338.53
2023-04-03T19:55:11.125Z,98350.53
2023-04-03T19:57:39.421Z,98358.72
2023-04-03T20:00:11.372Z,98358.47
2023-04-03T20:02:40.888Z,98345.66
2023-04-03T20:05:11.182Z,98347.41
2023-04-03T20:07:39.955Z,98353.66
2023-04-03T20:10:08.739Z,98343.63
2023-04-03T20:12:38.258Z,98355.91
2023-04-03T20:15:09.357Z,98357.88
2023-04-03T20:17:38.213Z,98353.25
2023-04-03T20:20:08.147Z,98366.28
2023-04-03T20:22:38.068Z,98364.56
2023-04-03T20:25:07.529Z,98361.50
2023-04-03T20:27:36.416Z,98348.47
2023-04-03T20:30:14.686Z,98342.50
2023-04-03T20:32:48.742Z,98322.41
2023-04-03T20:35:22.550Z,98328.41
2023-04-03T20:37:50.834Z,98329.75
2023-04-03T20:40:19.289Z,98320.72
2023-04-03T20:42:47.520Z,98314.13
2023-04-03T20:45:17.359Z,98302.94
2023-04-03T20:47:46.038Z,98292.34
2023-04-03T20:50:14.283Z,98301.28
2023-04-03T20:52:43.025Z,98300.13
2023-04-03T20:55:11.524Z,98295.00
2023-04-03T20:57:39.993Z,98281.50
2023-04-03T21:00:09.811Z,98274.56
2023-04-03T21:02:39.674Z,98269.84
2023-04-03T21:05:10.137Z,98282.53
2023-04-03T21:08:16.506Z,98292.56
2023-04-03T21:11:23.972Z,98306.13
2023-04-03T21:14:30.982Z,98295.97
2023-04-03T21:16:59.219Z,98299.22
2023-04-03T21:19:30.092Z,98288.38
2023-04-03T21:22:01.138Z,98275.63
2023-04-03T21:24:31.555Z,98272.34
2023-04-03T21:27:00.264Z,98269.38
2023-04-03T21:29:29.003Z,98248.56
2023-04-03T21:31:58.292Z,98239.19
2023-04-03T21:34:29.772Z,98254.38
2023-04-03T21:37:02.017Z,98263.63
2023-04-03T21:39:30.764Z,98263.31
2023-04-03T21:41:59.524Z,98259.69
2023-04-03T21:44:28.556Z,98267.97
2023-04-03T21:46:57.214Z,98264.25
2023-04-03T21:49:27.221Z,98254.53
2023-04-03T21:51:57.647Z,98266.66
2023-04-03T21:54:26.105Z,98264.38
2023-04-03T21:56:54.381Z,98278.69
2023-04-03T21:59:23.276Z,98275.53
2023-04-03T22:01:51.648Z,98274.50
2023-04-03T22:04:19.984Z,98272.59
2023-04-03T22:06:48.164Z,98271.78
2023-04-03T22:09:17.834Z,98271.78
2023-04-03T22:11:46.314Z,98272.63
2023-04-03T22:14:14.536Z,98278.91
2023-04-03T22:16:47.189Z,98263.47
2023-04-03T22:19:15.565Z,98262.69
2023-04-03T22:21:43.926Z,98253.88
2023-04-03T22:24:12.382Z,98262.31
2023-04-03T22:26:44.419Z,98246.53
2023-04-03T22:29:13.443Z,98234.59
2023-04-03T22:31:42.442Z,98238.75
2023-04-03T22:34:11.918Z,98227.44
2023-04-03T22:36:43.300Z,98225.06
2023-04-03T22:39:13.775Z,98228.19
2023-04-03T22:41:45.637Z,98215.88
2023-04-03T22:44:15.162Z,98222.34
2023-04-03T22:46:44.876Z,98225.38
2023-04-03T22:49:14.011Z,98235.13
2023-04-03T22:51:42.575Z,98238.28
2023-04-03T22:54:11.347Z,98230.28
2023-04-03T22:56:39.798Z,98229.56
2023-04-03T22:59:10.679Z,98232.56
2023-04-03T23:01:40.276Z,98232.22
2023-04-03T23:04:08.742Z,98235.72
2023-04-03T23:06:37.000Z,98229.13
2023-04-03T23:09:05.207Z,98229.63
2023-04-03T23:11:33.404Z,98235.84
2023-04-03T23:14:03.194Z,98238.94
2023-04-03T23:16:33.062Z,98225.06
2023-04-03T23:19:01.489Z,98214.25
2023-04-03T23:21:29.697Z,98208.00
2023-04-03T23:23:58.129Z,98209.13
2023-04-03T23:26:26.535Z,98205.97
2023-04-03T23:28:54.690Z,98209.41
2023-04-03T23:31:22.807Z,98205.22
2023-04-03T23:33:53.311Z,98203.03
2023-04-03T23:36:21.582Z,98203.03
2023-04-03T23:38:51.103Z,98199.16
2023-04-03T23:41:19.531Z,98205.75
2023-04-03T23:43:47.747Z,98198.81
2023-04-03T23:46:16.689Z,98187.63
2023-04-03T23:48:44.975Z,98181.00
2023-04-03T23:51:14.639Z,98182.53
2023-04-03T23:53:42.801Z,98180.19
2023-04-03T23:56:13.756Z,98188.38
2023-04-03T23:58:42.001Z,98180.28
